Time;durP1;ratioP1;P1;durP2;ratioP2;P2;SDS_P1;SDS_P2;PMS_P1;PMS_P2;Temp;Humidity;BMP_temperature;BMP_pressure;BME280_temperature;BME280_humidity;BME280_pressure;Samples;Min_cycle;Max_cycle;Signal;HPM_P1;HPM_P2
2021/11/22 00:01:57;;;;;;;20.77;15.00;;;;;;;5.78;83.49;94710.75;5056404;28;20437;-86
2021/11/22 00:04:24;;;;;;;16.97;12.57;;;;;;;5.73;83.89;94699.84;5056480;28;20441;-86
2021/11/22 00:06:57;;;;;;;21.10;14.03;;;;;;;5.74;84.91;94711.91;5056706;28;20472;-87
2021/11/22 00:09:24;;;;;;;23.93;13.40;;;;;;;5.71;84.84;94699.94;5057174;28;21058;-87
2021/11/22 00:11:53;;;;;;;16.67;13.40;;;;;;;5.69;84.37;94703.59;5056849;28;20523;-86
2021/11/22 00:14:21;;;;;;;25.23;15.50;;;;;;;5.65;85.62;94708.19;5056527;28;20430;-87
2021/11/22 00:16:49;;;;;;;21.83;14.87;;;;;;;5.65;85.29;94710.78;5056677;28;20442;-86
2021/11/22 00:19:16;;;;;;;23.97;14.23;;;;;;;5.62;85.28;94716.22;5056261;28;20479;-87
2021/11/22 00:21:43;;;;;;;17.73;13.80;;;;;;;5.63;85.40;94717.88;5056932;28;20457;-87
2021/11/22 00:24:10;;;;;;;15.83;12.27;;;;;;;5.62;85.59;94720.59;5056966;28;20449;-87
2021/11/22 00:26:37;;;;;;;21.13;14.80;;;;;;;5.65;85.71;94707.34;5056376;28;20449;-87
2021/11/22 00:29:04;;;;;;;21.43;13.83;;;;;;;5.68;85.11;94704.53;5056643;28;20439;-87
2021/11/22 00:31:31;;;;;;;19.97;13.90;;;;;;;5.66;85.56;94706.41;5056424;28;20931;-87
2021/11/22 00:33:59;;;;;;;20.83;14.60;;;;;;;5.56;85.78;94696.63;5056162;28;20547;-88
2021/11/22 00:36:26;;;;;;;19.87;15.37;;;;;;;5.64;85.74;94698.72;5056719;28;20457;-87
2021/11/22 00:38:54;;;;;;;18.00;15.23;;;;;;;5.65;86.08;94696.94;5056616;28;20813;-87
2021/11/22 00:41:21;;;;;;;17.37;12.60;;;;;;;5.64;85.28;94697.88;5056346;28;20453;-87
2021/11/22 00:43:48;;;;;;;19.53;12.80;;;;;;;5.58;85.36;94693.94;5056201;28;20452;-87
2021/11/22 00:46:15;;;;;;;16.63;12.70;;;;;;;5.55;85.81;94692.38;5056530;28;20999;-86
2021/11/22 00:48:42;;;;;;;17.77;12.93;;;;;;;5.59;86.69;94693.81;5056310;28;20487;-87
2021/11/22 00:51:10;;;;;;;18.27;12.63;;;;;;;5.62;86.81;94691.94;5056377;28;20457;-87
2021/11/22 00:53:37;;;;;;;18.47;13.27;;;;;;;5.68;86.05;94691.53;5056547;28;20808;-87
2021/11/22 00:56:05;;;;;;;20.57;14.83;;;;;;;5.66;85.39;94690.78;5055907;28;20460;-87
2021/11/22 00:58:32;;;;;;;21.93;14.73;;;;;;;5.68;84.32;94691.53;5055954;28;20459;-86
2021/11/22 01:00:59;;;;;;;19.70;13.90;;;;;;;5.70;83.65;94694.84;5055398;28;20489;-86
2021/11/22 01:03:26;;;;;;;18.30;13.07;;;;;;;5.68;84.31;94694.97;5055967;28;20441;-87
2021/11/22 01:05:53;;;;;;;27.43;18.47;;;;;;;5.62;83.93;94694.56;5056599;28;20794;-87
2021/11/22 01:08:21;;;;;;;33.30;21.40;;;;;;;5.54;83.80;94701.13;5055978;28;20491;-87
2021/11/22 01:10:48;;;;;;;49.90;32.87;;;;;;;5.38;84.16;94690.06;5055614;28;20468;-87
2021/11/22 01:13:15;;;;;;;53.90;33.63;;;;;;;5.28;84.90;94695.06;5055551;28;20520;-87
2021/11/22 01:15:42;;;;;;;48.35;33.05;;;;;;;5.18;84.22;94707.00;5055319;28;20794;-87
2021/11/22 01:18:10;;;;;;;64.10;43.00;;;;;;;5.15;84.06;94702.00;5055706;28;20205;-87
2021/11/22 01:20:38;;;;;;;66.53;41.77;;;;;;;5.13;84.13;94706.50;5055913;28;20479;-87
2021/11/22 01:23:08;;;;;;;54.50;37.70;;;;;;;4.80;84.21;94698.31;5056087;28;20521;-87
2021/11/22 01:25:37;;;;;;;48.33;33.17;;;;;;;4.76;85.82;94702.88;5055793;28;20441;-87
2021/11/22 01:28:05;;;;;;;44.97;29.43;;;;;;;4.74;84.89;94698.72;5055844;28;20449;-87
2021/11/22 01:30:32;;;;;;;42.17;26.87;;;;;;;4.81;85.32;94699.97;5054879;28;20958;-87
2021/11/22 01:32:59;;;;;;;38.73;26.70;;;;;;;4.85;85.37;94704.88;5054963;28;20449;-86
2021/11/22 01:35:26;;;;;;;42.97;25.83;;;;;;;4.88;85.06;94702.06;5055220;28;20453;-87
2021/11/22 01:37:53;;;;;;;39.87;27.27;;;;;;;4.87;85.19;94700.41;5054896;28;20449;-87
2021/11/22 01:43:43;;;;;;;40.20;24.50;;;;;;;4.95;84.28;94711.16;5054060;28;20428;-87
2021/11/22 01:46:17;;;;;;;39.47;25.10;;;;;;;4.95;83.89;94702.53;5054863;28;20455;-86
2021/11/22 01:48:44;;;;;;;43.30;26.53;;;;;;;4.94;84.12;94714.69;5055200;28;20499;-87
2021/11/22 01:51:11;;;;;;;42.53;25.30;;;;;;;4.92;84.66;94707.94;5055769;28;20449;-87
2021/11/22 01:53:38;;;;;;;39.13;28.90;;;;;;;4.93;84.57;94701.78;5055424;28;20456;-87
2021/11/22 01:56:05;;;;;;;47.10;32.37;;;;;;;4.98;85.09;94707.53;5056401;28;20537;-87
2021/11/22 01:58:32;;;;;;;51.30;32.30;;;;;;;5.02;85.86;94703.78;5055287;28;20437;-86
2021/11/22 02:01:01;;;;;;;60.77;34.40;;;;;;;5.08;85.84;94697.34;5054759;28;20841;-87
2021/11/22 02:03:28;;;;;;;57.97;33.00;;;;;;;5.13;85.76;94697.84;5054758;28;20452;-87
2021/11/22 02:05:55;;;;;;;48.17;31.80;;;;;;;5.13;85.58;94701.28;5054292;28;20460;-87
2021/11/22 02:08:23;;;;;;;52.20;32.50;;;;;;;5.13;84.95;94700.47;5054552;28;20487;-87
2021/11/22 02:10:51;;;;;;;57.90;32.23;;;;;;;5.13;84.70;94703.06;5054359;28;20452;-87
2021/11/22 02:13:19;;;;;;;45.70;29.77;;;;;;;5.10;84.35;94698.91;5054625;28;20461;-87
2021/11/22 02:15:47;;;;;;;46.27;27.47;;;;;;;5.08;83.82;94694.72;5054398;28;20516;-86
2021/11/22 02:18:18;;;;;;;47.00;28.40;;;;;;;5.05;83.96;94693.19;5054940;28;20460;-86
2021/11/22 02:20:48;;;;;;;41.83;24.73;;;;;;;4.96;84.07;94699.81;5054512;28;20477;-87
2021/11/22 02:23:15;;;;;;;37.97;24.50;;;;;;;4.98;84.69;94697.94;5054636;28;20445;-87
2021/11/22 02:25:44;;;;;;;29.03;20.60;;;;;;;4.97;84.67;94680.69;5054654;28;20489;-88
2021/11/22 02:28:13;;;;;;;29.07;19.07;;;;;;;4.98;85.44;94684.94;5055257;28;20457;-87
2021/11/22 02:30:42;;;;;;;21.30;15.73;;;;;;;4.97;85.03;94685.88;5054755;28;20461;-87
2021/11/22 02:33:11;;;;;;;25.63;17.13;;;;;;;4.95;85.68;94685.16;5055192;28;20455;-87
2021/11/22 02:35:41;;;;;;;23.43;15.07;;;;;;;4.94;85.91;94687.88;5054840;28;20512;-87
2021/11/22 02:38:09;;;;;;;19.50;15.23;;;;;;;4.93;85.79;94674.03;5054840;28;20455;-87
2021/11/22 02:40:36;;;;;;;19.37;15.30;;;;;;;4.93;86.26;94683.59;5054224;28;20517;-86
2021/11/22 02:45:44;;;;;;;21.33;14.40;;;;;;;4.91;86.13;94691.47;5036348;28;20540;-86
2021/11/22 02:48:11;;;;;;;19.97;15.00;;;;;;;4.94;87.00;94680.91;5058594;28;20459;-86
2021/11/22 02:50:39;;;;;;;18.67;13.83;;;;;;;4.96;87.17;94673.00;5058675;28;20445;-87
2021/11/22 02:53:06;;;;;;;20.70;15.03;;;;;;;4.98;86.87;94684.94;5058113;28;20465;-84
2021/11/22 02:55:34;;;;;;;19.40;13.53;;;;;;;5.00;87.44;94678.81;5058227;28;20444;-87
2021/11/22 02:58:02;;;;;;;15.47;12.83;;;;;;;5.00;87.07;94677.06;5058450;28;20453;-87
2021/11/22 03:00:33;;;;;;;19.00;14.30;;;;;;;5.03;86.73;94679.44;5058489;28;20476;-86
2021/11/22 03:03:00;;;;;;;18.27;13.37;;;;;;;5.07;87.29;94685.28;5058649;28;20451;-87
2021/11/22 03:05:27;;;;;;;19.13;13.27;;;;;;;5.10;86.56;94675.50;5059187;28;20444;-87
2021/11/22 03:07:56;;;;;;;20.17;14.37;;;;;;;5.13;86.82;94677.06;5057912;28;23198;-87
2021/11/22 03:10:26;;;;;;;20.83;13.87;;;;;;;5.15;86.46;94673.41;5057979;28;20559;-87
2021/11/22 03:12:54;;;;;;;19.70;12.90;;;;;;;5.19;86.13;94674.03;5058811;28;20457;-87
2021/11/22 03:15:23;;;;;;;17.30;13.27;;;;;;;5.20;86.06;94671.34;5058467;28;20449;-87
2021/11/22 03:17:50;;;;;;;18.57;13.40;;;;;;;5.24;86.13;94678.00;5058528;28;20455;-87
2021/11/22 03:20:19;;;;;;;22.67;14.63;;;;;;;5.28;85.83;94673.44;5058466;28;20476;-87
2021/11/22 03:22:47;;;;;;;18.00;13.43;;;;;;;5.31;86.08;94677.59;5058149;28;20453;-87
2021/11/22 03:25:16;;;;;;;18.50;13.40;;;;;;;5.26;87.01;94677.91;5058539;28;20454;-87
2021/11/22 03:27:44;;;;;;;33.80;14.53;;;;;;;5.28;87.09;94683.84;5058164;28;20464;-87
2021/11/22 03:30:15;;;;;;;17.10;13.80;;;;;;;5.31;86.37;94683.63;5058310;28;20824;-87
2021/11/22 03:32:42;;;;;;;19.07;13.73;;;;;;;5.32;86.06;94674.88;5057800;28;20805;-87
2021/11/22 03:35:10;;;;;;;53.03;31.67;;;;;;;5.34;85.65;94685.19;5057979;28;20445;-87
2021/11/22 03:37:37;;;;;;;30.40;21.47;;;;;;;5.28;85.93;94678.63;5058091;28;20453;-87
2021/11/22 03:40:05;;;;;;;21.70;18.00;;;;;;;5.22;85.46;94681.66;5057869;28;20483;-87
2021/11/22 03:42:40;;;;;;;26.23;18.40;;;;;;;5.20;85.99;94691.31;5057847;28;20439;-87
2021/11/22 03:45:09;;;;;;;21.93;16.40;;;;;;;5.21;85.33;94687.78;5058062;28;20514;-87
2021/11/22 03:47:38;;;;;;;21.53;15.50;;;;;;;5.21;85.56;94683.44;5057870;28;20445;-86
2021/11/22 03:50:06;;;;;;;25.40;16.90;;;;;;;5.23;85.71;94681.56;5057360;28;20463;-87
2021/11/22 03:52:33;;;;;;;19.40;14.00;;;;;;;5.23;85.52;94699.75;5056804;28;20924;-87
2021/11/22 03:55:00;;;;;;;17.23;12.30;;;;;;;5.19;85.99;94700.03;5057262;28;20476;-87
2021/11/22 03:57:28;;;;;;;20.77;13.70;;;;;;;5.17;86.70;94697.53;5057498;28;20455;-87
2021/11/22 03:59:56;;;;;;;19.90;12.87;;;;;;;5.13;87.62;94696.09;5057374;28;20445;-87
2021/11/22 04:02:23;;;;;;;15.87;12.37;;;;;;;5.18;87.40;94698.38;5057330;28;20451;-88
2021/11/22 04:04:52;;;;;;;16.50;12.97;;;;;;;5.19;87.70;94702.63;5057720;28;20943;-87
2021/11/22 04:07:19;;;;;;;21.90;12.83;;;;;;;5.16;87.18;94706.28;5057366;28;20533;-87
2021/11/22 04:09:46;;;;;;;16.63;12.20;;;;;;;5.17;86.89;94696.72;5056515;28;20473;-87
2021/11/22 04:12:13;;;;;;;14.70;11.43;;;;;;;5.02;87.25;94700.34;5057091;28;20456;-87
2021/11/22 04:14:40;;;;;;;17.40;13.77;;;;;;;5.06;87.49;94699.22;5057027;28;20456;-87
2021/11/22 04:17:07;;;;;;;20.30;13.93;;;;;;;5.07;86.96;94700.88;5057341;28;20547;-87
2021/11/22 04:19:34;;;;;;;20.10;14.37;;;;;;;5.09;87.27;94693.81;5056612;28;20453;-87
2021/11/22 04:22:03;;;;;;;18.17;13.37;;;;;;;5.09;86.77;94701.59;5057217;28;20469;-87
2021/11/22 04:24:30;;;;;;;15.37;13.27;;;;;;;5.04;87.57;94698.47;5057470;28;20495;-87
2021/11/22 04:26:57;;;;;;;24.53;14.60;;;;;;;4.88;88.37;94709.88;5056744;28;20441;-87
2021/11/22 04:29:24;;;;;;;18.50;13.70;;;;;;;4.82;88.68;94699.06;5056784;28;20449;-87
2021/11/22 04:31:51;;;;;;;33.67;19.73;;;;;;;4.65;89.28;94706.19;5056662;28;20459;-87
2021/11/22 04:34:18;;;;;;;24.43;15.17;;;;;;;4.70;89.87;94718.88;5056560;28;20544;-86
2021/11/22 04:36:45;;;;;;;25.38;15.70;;;;;;;4.78;90.05;94713.19;5056009;28;20444;-83
2021/11/22 04:39:14;;;;;;;30.80;19.00;;;;;;;4.82;88.92;94712.88;5020487;28;20444;-83
2021/11/22 04:48:24;;;;;;;29.93;21.00;;;;;;;4.04;89.15;94725.63;5054397;28;20506;-83
2021/11/22 04:50:51;;;;;;;25.77;17.80;;;;;;;4.10;89.23;94719.25;5055521;28;20430;-83
2021/11/22 04:53:18;;;;;;;32.53;21.87;;;;;;;4.19;89.59;94730.81;5055027;28;20475;-83
2021/11/22 04:55:48;;;;;;;44.67;27.47;;;;;;;4.28;89.73;94730.22;5056015;28;20434;-83
2021/11/22 04:58:15;;;;;;;45.93;28.20;;;;;;;4.34;88.76;94729.88;5020347;28;20441;-85
2021/11/22 05:00:43;;;;;;;33.00;22.60;;;;;;;4.38;88.93;94733.09;5054970;28;20491;-85
2021/11/22 05:03:11;;;;;;;43.50;25.23;;;;;;;4.42;88.91;94739.78;5054613;28;20452;-86
2021/11/22 05:05:38;;;;;;;38.73;25.70;;;;;;;4.42;88.85;94745.78;5055607;28;20463;-86
2021/11/22 05:08:07;;;;;;;54.23;32.67;;;;;;;4.43;88.30;94751.81;5054806;28;20485;-85
2021/11/22 05:10:36;;;;;;;58.50;38.00;;;;;;;4.45;88.88;94745.59;5054584;28;20450;-85
2021/11/22 05:13:06;;;;;;;60.80;37.47;;;;;;;4.50;88.45;94758.28;5054083;28;20436;-85
2021/11/22 05:15:33;;;;;;;58.63;33.13;;;;;;;4.46;88.56;94754.22;5054210;28;20440;-84
2021/11/22 05:18:00;;;;;;;62.47;38.03;;;;;;;4.35;87.56;94755.75;5053973;28;20453;-85
2021/11/22 05:20:29;;;;;;;58.03;34.90;;;;;;;4.38;87.97;94746.94;5054115;28;20485;-85
2021/11/22 05:22:56;;;;;;;46.33;28.53;;;;;;;4.41;88.52;94764.06;5053943;28;20441;-85
2021/11/22 05:25:23;;;;;;;55.87;32.03;;;;;;;4.42;88.99;94758.78;5035083;28;20453;-85
2021/11/22 05:27:50;;;;;;;51.70;30.77;;;;;;;4.31;88.69;94746.44;5054110;28;20970;-86
2021/11/22 05:30:22;;;;;;;50.10;29.90;;;;;;;4.06;90.19;94756.72;5054435;28;20441;-86
2021/11/22 05:32:49;;;;;;;41.87;28.97;;;;;;;4.09;89.81;94740.94;5054198;28;20441;-86
2021/11/22 05:35:16;;;;;;;48.13;30.67;;;;;;;4.15;89.90;94756.13;5018903;28;20540;-85
2021/11/22 05:37:43;;;;;;;43.17;28.90;;;;;;;4.21;90.29;94755.75;5053434;28;20457;-86
2021/11/22 05:40:11;;;;;;;56.70;30.67;;;;;;;4.25;89.71;94759.81;5054024;28;20441;-86
2021/11/22 05:42:38;;;;;;;44.17;29.07;;;;;;;4.10;90.14;94755.59;5053579;28;20448;-88
2021/11/22 05:45:07;;;;;;;44.27;27.43;;;;;;;4.04;90.26;94753.34;5054166;28;20950;-85
2021/11/22 05:47:35;;;;;;;41.77;26.57;;;;;;;3.93;91.38;94758.38;5054632;28;20954;-85
2021/11/22 05:50:05;;;;;;;49.40;30.57;;;;;;;4.01;91.21;94761.34;5054226;28;20443;-81
2021/11/22 05:52:34;;;;;;;53.40;30.63;;;;;;;4.16;91.79;94763.00;5053869;28;20617;-81
2021/11/22 05:55:01;;;;;;;54.03;34.17;;;;;;;4.21;91.05;94763.53;5053530;28;20807;-80
2021/11/22 05:57:28;;;;;;;63.57;40.60;;;;;;;4.34;90.31;94759.28;5053462;28;20929;-83
2021/11/22 05:59:55;;;;;;;73.03;43.10;;;;;;;4.40;90.03;94772.81;5052671;28;20434;-83
2021/11/22 06:02:22;;;;;;;63.70;37.80;;;;;;;4.49;90.09;94769.63;5054288;28;21070;-88
2021/11/22 06:04:51;;;;;;;54.93;35.00;;;;;;;4.65;90.32;94783.31;5056830;28;20446;-86
2021/11/22 06:07:18;;;;;;;59.43;35.30;;;;;;;4.65;89.17;94778.13;5057013;28;20787;-85
2021/11/22 06:09:44;;;;;;;68.70;34.20;;;;;;;4.57;89.58;94772.56;5057181;28;20487;-85
2021/11/22 06:12:11;;;;;;;99.33;53.07;;;;;;;4.52;90.35;94777.22;5054707;28;20951;-85
2021/11/22 06:14:38;;;;;;;64.87;38.07;;;;;;;4.63;90.24;94780.00;5054464;28;20441;-84
2021/11/22 06:17:05;;;;;;;70.90;37.50;;;;;;;4.74;90.01;94785.31;5053653;28;20425;-84
2021/11/22 06:19:32;;;;;;;60.37;35.77;;;;;;;4.77;89.66;94787.72;5053858;28;20456;-84
2021/11/22 06:22:01;;;;;;;63.40;37.83;;;;;;;4.90;89.81;94798.16;5054368;28;20476;-85
2021/11/22 06:24:28;;;;;;;76.17;47.30;;;;;;;4.81;90.67;94786.59;5054038;28;20450;-84
2021/11/22 06:26:56;;;;;;;80.27;48.10;;;;;;;4.83;90.52;94789.94;5054438;28;20440;-84
2021/11/22 06:29:24;;;;;;;75.53;48.67;;;;;;;5.01;90.65;94800.09;5036351;28;20792;-84
2021/11/22 06:31:51;;;;;;;73.03;45.43;;;;;;;5.16;89.58;94784.31;5055342;28;20769;-83
2021/11/22 06:34:19;;;;;;;67.53;39.43;;;;;;;5.20;89.78;94791.00;5054813;28;20441;-88
2021/11/22 06:36:46;;;;;;;54.83;34.47;;;;;;;4.98;91.48;94786.34;5053770;28;20430;-84
2021/11/22 06:39:14;;;;;;;67.27;41.20;;;;;;;5.29;91.11;94793.00;5053898;28;20804;-84
2021/11/22 06:41:41;;;;;;;57.63;39.37;;;;;;;5.42;90.69;94789.56;5035749;28;20496;-84
2021/11/22 06:44:08;;;;;;;60.17;39.33;;;;;;;5.50;89.86;94795.97;5053791;28;20456;-84
2021/11/22 06:46:35;;;;;;;44.80;31.87;;;;;;;5.65;91.15;94796.69;5053750;28;20457;-84
2021/11/22 06:49:02;;;;;;;61.63;34.13;;;;;;;5.82;90.21;94798.16;5053479;28;20445;-84
2021/11/22 06:51:29;;;;;;;56.70;35.77;;;;;;;5.92;89.23;94804.44;5053154;28;20798;-84
2021/11/22 06:53:56;;;;;;;55.13;37.70;;;;;;;5.87;88.26;94790.88;5052641;28;20804;-84
2021/11/22 06:56:24;;;;;;;65.47;37.80;;;;;;;5.98;89.06;94792.75;5052616;28;20446;-84
2021/11/22 06:58:51;;;;;;;69.47;39.33;;;;;;;5.54;89.09;94788.78;5052613;28;20442;-84
2021/11/22 07:01:18;;;;;;;71.17;42.63;;;;;;;5.31;89.19;94792.88;5052091;28;20493;-84
2021/11/22 07:03:45;;;;;;;65.33;40.07;;;;;;;5.43;89.77;94801.66;5053005;28;20451;-83
2021/11/22 07:06:12;;;;;;;71.23;44.53;;;;;;;5.55;89.98;94783.47;5052208;28;20459;-83
2021/11/22 07:08:39;;;;;;;82.77;48.27;;;;;;;5.15;90.82;94784.41;5053784;28;20827;-83
2021/11/22 07:11:06;;;;;;;78.77;46.80;;;;;;;5.28;91.47;94783.53;5052654;28;20453;-83
2021/11/22 07:13:35;;;;;;;72.70;48.40;;;;;;;5.42;91.16;94774.78;5052167;28;20449;-83
2021/11/22 07:16:02;;;;;;;68.67;43.40;;;;;;;5.56;91.11;94789.50;5052211;28;20498;-83
2021/11/22 07:18:29;;;;;;;66.33;44.07;;;;;;;5.57;91.57;94779.00;5052311;28;20433;-83
2021/11/22 07:20:57;;;;;;;80.40;46.73;;;;;;;5.60;91.94;94780.56;5052367;28;20441;-83
2021/11/22 07:23:25;;;;;;;67.97;44.47;;;;;;;5.77;92.34;94784.59;5052486;28;20446;-83
2021/11/22 07:25:53;;;;;;;72.43;42.17;;;;;;;5.88;92.20;94782.94;5052289;28;20437;-83
2021/11/22 07:28:20;;;;;;;71.63;42.17;;;;;;;6.00;92.23;94786.50;5052900;28;20457;-83
2021/11/22 07:30:49;;;;;;;74.70;46.53;;;;;;;6.23;91.15;94790.13;5055618;28;20839;-83
2021/11/22 07:33:17;;;;;;;84.60;48.80;;;;;;;6.44;90.47;94782.59;5056194;28;20449;-83
2021/11/22 07:35:45;;;;;;;82.90;47.60;;;;;;;6.62;89.98;94791.72;5055551;28;20516;-83
2021/11/22 07:38:12;;;;;;;75.37;47.00;;;;;;;6.68;89.32;94783.47;5055925;28;20446;-83
2021/11/22 07:40:41;;;;;;;83.43;45.87;;;;;;;6.76;89.44;94782.94;5055299;28;20456;-83
2021/11/22 07:43:08;;;;;;;74.70;45.33;;;;;;;6.74;89.28;94780.44;5055538;28;20484;-83
2021/11/22 07:45:36;;;;;;;76.13;44.07;;;;;;;6.93;89.03;94792.13;5055296;28;20456;-83
2021/11/22 07:48:05;;;;;;;79.33;48.10;;;;;;;7.09;88.25;94801.34;5055576;28;20456;-83
2021/11/22 07:50:32;;;;;;;75.53;44.90;;;;;;;7.22;88.38;94783.03;5055042;28;20540;-83
2021/11/22 07:52:59;;;;;;;72.60;48.03;;;;;;;7.38;87.51;94780.13;5055381;28;20447;-83
2021/11/22 07:55:26;;;;;;;83.53;52.77;;;;;;;7.54;86.63;94785.06;5054891;28;20952;-83
2021/11/22 07:57:54;;;;;;;61.97;41.63;;;;;;;7.47;85.93;94782.88;5036452;28;20447;-83
2021/11/22 08:00:23;;;;;;;70.33;45.40;;;;;;;7.51;86.00;94783.47;5055346;28;20442;-83
2021/11/22 08:02:50;;;;;;;70.07;46.97;;;;;;;7.26;86.77;94773.22;5054918;28;20489;-83
2021/11/22 08:05:20;;;;;;;75.30;45.80;;;;;;;7.39;86.66;94779.19;5055372;28;20459;-83
2021/11/22 08:07:47;;;;;;;72.50;48.47;;;;;;;7.42;87.31;94778.94;5054782;28;20540;-83
2021/11/22 08:10:28;;;;;;;78.67;47.40;;;;;;;7.54;87.20;94772.00;5019947;28;21021;-83
2021/11/22 08:12:58;;;;;;;65.50;44.13;;;;;;;7.70;87.78;94778.56;5055622;28;20951;-83
2021/11/22 08:15:27;;;;;;;72.87;43.30;;;;;;;7.84;87.18;94772.31;5055023;28;20446;-83
2021/11/22 08:17:55;;;;;;;69.37;42.73;;;;;;;7.98;85.86;94776.47;5055047;28;20529;-83
2021/11/22 08:20:23;;;;;;;61.13;39.60;;;;;;;8.08;85.48;94777.41;5055056;28;20523;-83
2021/11/22 08:22:52;;;;;;;57.93;40.93;;;;;;;8.18;86.25;94781.00;5054488;28;20474;-84
2021/11/22 08:25:25;;;;;;;65.28;45.35;;;;;;;8.20;86.38;94780.88;5053944;28;20431;-83
2021/11/22 08:27:54;;;;;;;64.60;43.40;;;;;;;8.13;85.71;94775.28;5054777;28;20693;-83
2021/11/22 08:30:22;;;;;;;65.77;42.10;;;;;;;8.27;86.02;94780.28;5054630;28;20939;-83
2021/11/22 08:32:51;;;;;;;65.73;42.37;;;;;;;8.36;85.71;94783.97;5054633;28;20533;-83
2021/11/22 08:35:20;;;;;;;68.30;43.47;;;;;;;8.28;86.00;94773.25;5019254;28;20433;-83
2021/11/22 08:37:50;;;;;;;66.77;42.87;;;;;;;8.35;86.15;94770.06;5054618;28;20460;-83
2021/11/22 08:40:20;;;;;;;57.13;39.20;;;;;;;8.51;85.47;94772.34;5054177;28;20462;-83
2021/11/22 08:42:48;;;;;;;58.03;38.60;;;;;;;8.45;85.98;94772.00;5054095;28;21085;-83
2021/11/22 08:45:15;;;;;;;69.50;38.93;;;;;;;8.61;85.69;94770.66;5054213;28;20458;-83
2021/11/22 08:47:42;;;;;;;65.70;40.67;;;;;;;8.69;85.34;94772.69;5054154;28;20516;-83
2021/11/22 08:50:11;;;;;;;66.67;40.10;;;;;;;8.81;84.14;94776.94;5054261;28;20470;-83
2021/11/22 08:52:38;;;;;;;62.20;40.83;;;;;;;8.89;83.53;94779.75;5035557;28;20435;-83
2021/11/22 08:55:07;;;;;;;52.73;35.50;;;;;;;8.91;83.89;94770.00;5054235;28;20457;-83
2021/11/22 08:57:34;;;;;;;66.80;38.93;;;;;;;8.90;84.14;94764.88;5053835;28;20546;-83
2021/11/22 09:00:03;;;;;;;55.83;37.13;;;;;;;8.94;83.77;94769.75;5054149;28;20541;-83
2021/11/22 09:02:30;;;;;;;63.77;41.50;;;;;;;9.05;83.69;94766.28;5019307;28;20476;-83
2021/11/22 09:04:57;;;;;;;57.33;39.03;;;;;;;9.09;83.32;94764.25;5054071;28;20455;-83
2021/11/22 09:07:24;;;;;;;53.37;36.90;;;;;;;9.21;83.62;94764.06;5053940;28;20544;-83
2021/11/22 09:09:51;;;;;;;46.47;34.23;;;;;;;9.26;83.91;94768.97;5053490;28;20843;-83
2021/11/22 09:12:20;;;;;;;53.90;35.00;;;;;;;9.33;82.54;94767.50;5054205;28;20460;-83
2021/11/22 09:14:46;;;;;;;60.77;36.23;;;;;;;9.45;83.06;94765.63;5053698;28;20960;-83
2021/11/22 09:17:13;;;;;;;62.30;36.43;;;;;;;9.53;82.78;94763.22;5053727;28;20451;-83
2021/11/22 09:19:41;;;;;;;54.40;36.40;;;;;;;9.65;82.55;94764.84;5054052;28;20464;-83
2021/11/22 09:22:11;;;;;;;50.97;34.10;;;;;;;9.65;82.15;94766.63;5053196;28;20999;-83
2021/11/22 09:24:38;;;;;;;58.73;37.80;;;;;;;9.76;82.29;94767.38;5053572;28;20443;-83
2021/11/22 09:27:05;;;;;;;68.87;35.73;;;;;;;9.82;81.84;94756.38;5053284;28;20452;-83
2021/11/22 09:29:34;;;;;;;54.57;34.27;;;;;;;9.81;80.72;94756.50;5053996;28;20837;-83
2021/11/22 09:32:01;;;;;;;55.03;33.23;;;;;;;9.81;81.51;94762.56;5053400;28;20449;-81
2021/11/22 09:34:28;;;;;;;47.37;31.67;;;;;;;9.83;81.39;94759.81;5053553;28;20445;-83
2021/11/22 09:36:55;;;;;;;50.90;31.50;;;;;;;10.00;80.90;94759.25;5053252;28;20448;-83
2021/11/22 09:39:23;;;;;;;51.23;32.10;;;;;;;10.16;80.42;94753.56;5053392;28;20452;-83
2021/11/22 09:41:51;;;;;;;57.73;32.50;;;;;;;10.28;80.77;94747.28;5053310;28;20489;-83
2021/11/22 09:44:21;;;;;;;53.63;31.30;;;;;;;10.37;80.34;94748.25;5053402;28;20452;-83
2021/11/22 09:46:50;;;;;;;51.73;31.00;;;;;;;10.50;79.36;94752.34;5052965;28;20528;-83
2021/11/22 09:49:17;;;;;;;47.87;31.00;;;;;;;10.64;78.97;94752.91;5053144;28;20920;-83
2021/11/22 09:51:44;;;;;;;46.03;31.95;;;;;;;10.76;79.01;94741.38;5051254;28;20449;-83
2021/11/22 09:54:12;;;;;;;44.40;28.27;;;;;;;10.79;78.15;94746.34;5052973;28;20202;-83
2021/11/22 09:56:39;;;;;;;44.27;29.10;;;;;;;10.90;78.06;94738.34;5053335;28;20946;-83
2021/11/22 09:59:06;;;;;;;44.13;28.00;;;;;;;10.81;77.19;94729.50;5053105;28;20816;-83
2021/11/22 10:01:35;;;;;;;38.47;27.10;;;;;;;10.88;78.08;94731.56;5052809;28;20467;-83
2021/11/22 10:04:07;;;;;;;39.03;27.23;;;;;;;10.86;76.19;94729.06;5052563;28;20448;-83
2021/11/22 10:06:49;;;;;;;43.03;26.20;;;;;;;10.96;77.35;94729.09;5052707;28;20464;-82
2021/11/22 10:09:42;;;;;;;36.23;25.80;;;;;;;11.06;77.19;94730.78;5053021;28;21039;-83
2021/11/22 10:12:14;;;;;;;37.30;24.90;;;;;;;11.09;77.09;94719.16;5052640;28;20445;-82
2021/11/22 10:14:44;;;;;;;42.80;24.73;;;;;;;11.12;76.29;94714.47;5053308;28;20475;-83
2021/11/22 10:17:26;;;;;;;39.83;25.33;;;;;;;11.10;75.87;94708.53;5052403;28;20978;-82
2021/11/22 10:20:17;;;;;;;33.73;23.30;;;;;;;11.15;75.74;94718.59;5052519;28;20453;-83
2021/11/22 10:22:47;;;;;;;32.73;21.33;;;;;;;11.26;75.55;94710.56;4991097;28;20484;-83
2021/11/22 10:25:24;;;;;;;39.87;22.80;;;;;;;11.29;76.29;94701.63;4991194;28;20453;-83
2021/11/22 10:27:51;;;;;;;34.63;21.83;;;;;;;11.31;75.68;94699.69;4991083;28;20810;-83
2021/11/22 10:30:24;;;;;;;35.17;21.03;;;;;;;11.32;76.36;94699.53;4991247;28;20529;-83
2021/11/22 10:32:53;;;;;;;37.60;23.60;;;;;;;11.43;75.64;94695.94;4991013;28;21017;-83
2021/11/22 10:35:24;;;;;;;32.83;23.50;;;;;;;11.47;74.89;94697.31;4991273;28;20456;-83
2021/11/22 10:37:55;;;;;;;33.77;20.20;;;;;;;11.46;74.45;94701.72;4990905;28;20984;-83
2021/11/22 10:40:23;;;;;;;36.97;21.40;;;;;;;11.48;75.08;94697.16;4990864;28;20459;-82
2021/11/22 10:42:50;;;;;;;38.90;23.37;;;;;;;11.51;74.88;94693.41;4990748;28;20485;-83
2021/11/22 10:45:29;;;;;;;37.50;22.40;;;;;;;11.58;73.92;94697.16;4974649;28;20929;-82
2021/11/22 10:48:19;;;;;;;35.10;19.87;;;;;;;11.54;73.36;94695.75;4991023;28;21016;-82
2021/11/22 10:50:54;;;;;;;38.87;20.80;;;;;;;11.54;73.73;94690.50;4990682;28;20543;-82
2021/11/22 10:53:38;;;;;;;35.17;21.87;;;;;;;11.54;74.61;94690.50;4990947;28;20465;-83
2021/11/22 10:56:08;;;;;;;25.30;19.00;;;;;;;11.60;74.62;94689.13;4990787;28;20926;-82
2021/11/22 10:59:06;;;;;;;34.17;21.50;;;;;;;11.57;75.20;94687.63;4976963;28;20441;-83
2021/11/22 11:01:36;;;;;;;29.60;20.00;;;;;;;11.70;74.48;94688.13;4990507;28;20458;-83
2021/11/22 11:04:09;;;;;;;25.30;17.80;;;;;;;11.67;74.31;94688.41;4993949;28;20515;-83
2021/11/22 11:06:44;;;;;;;32.80;17.57;;;;;;;11.76;74.40;94681.47;4994358;28;20447;-83
2021/11/22 11:09:15;;;;;;;26.23;17.13;;;;;;;11.81;74.34;94683.69;4993941;28;20497;-82
2021/11/22 11:11:42;;;;;;;31.73;21.47;;;;;;;11.88;73.39;94683.00;4994630;28;20453;-83
2021/11/22 11:14:11;;;;;;;34.33;21.23;;;;;;;11.93;74.45;94682.59;4994218;28;20450;-83
2021/11/22 11:16:41;;;;;;;32.33;21.00;;;;;;;12.06;73.80;94685.69;4994236;28;20971;-82
2021/11/22 11:19:09;;;;;;;102.07;27.73;;;;;;;12.18;73.93;94681.13;4994336;28;20454;-83
2021/11/22 11:21:41;;;;;;;33.67;20.60;;;;;;;12.17;72.52;94684.72;4993999;28;20455;-83
2021/11/22 11:24:09;;;;;;;33.33;20.10;;;;;;;12.16;71.87;94678.63;4994167;28;20484;-82
2021/11/22 11:26:37;;;;;;;30.67;20.33;;;;;;;12.16;72.47;94676.00;4994221;28;20449;-83
2021/11/22 11:29:05;;;;;;;39.83;21.30;;;;;;;12.20;71.96;94668.63;4993966;28;20678;-83
2021/11/22 11:31:34;;;;;;;29.93;19.07;;;;;;;12.19;72.49;94683.59;4961583;28;20492;-82
2021/11/22 11:34:06;;;;;;;30.50;17.23;;;;;;;11.98;72.85;94672.47;4993944;28;20456;-83
2021/11/22 11:36:49;;;;;;;23.63;17.07;;;;;;;12.10;73.03;94674.75;5006770;28;20442;-82
2021/11/22 11:39:44;;;;;;;29.17;19.00;;;;;;;12.14;72.40;94680.53;5055355;28;20463;-82
2021/11/22 11:42:22;;;;;;;22.13;14.97;;;;;;;12.07;72.07;94682.09;5055246;28;20944;-83
2021/11/22 11:45:03;;;;;;;21.87;14.70;;;;;;;12.13;71.88;94678.88;5055381;28;20474;-83